Time;durP1;ratioP1;P1;durP2;ratioP2;P2;SDS_P1;SDS_P2;PMS_P1;PMS_P2;Temp;Humidity;BMP_temperature;BMP_pressure;BME280_temperature;BME280_humidity;BME280_pressure;Samples;Min_cycle;Max_cycle;Signal;HPM_P1;HPM_P2
2022/01/03 00:05:01;;;;;;;1.23;0.50;;;17.30;88.50;;;;;;10415236;28;20057;-75
2022/01/03 00:10:02;;;;;;;1.75;0.57;;;17.20;88.60;;;;;;10414952;28;20045;-74
2022/01/03 00:15:03;;;;;;;2.38;0.50;;;17.10;88.70;;;;;;10437092;28;20049;-74
2022/01/03 00:20:05;;;;;;;1.02;0.30;;;17.00;88.80;;;;;;10455183;28;20052;-75
2022/01/03 00:25:06;;;;;;;1.65;0.50;;;16.90;88.90;;;;;;10454936;28;20052;-75
2022/01/03 00:30:08;;;;;;;1.45;0.40;;;16.90;89.00;;;;;;10450388;28;20057;-74
2022/01/03 00:35:09;;;;;;;1.23;0.40;;;16.80;89.10;;;;;;10454612;28;20049;-74
2022/01/03 00:40:11;;;;;;;1.55;0.47;;;16.70;89.10;;;;;;10454751;28;20045;-75
2022/01/03 00:45:12;;;;;;;1.05;0.45;;;16.60;89.20;;;;;;10444946;28;20049;-74
2022/01/03 00:50:15;;;;;;;2.22;0.50;;;16.60;89.30;;;;;;10454223;28;20056;-74
2022/01/03 00:55:16;;;;;;;1.65;0.40;;;16.50;89.40;;;;;;10454375;28;20547;-74
2022/01/03 01:00:18;;;;;;;2.38;0.60;;;16.50;89.50;;;;;;10452436;28;20405;-75
2022/01/03 01:05:19;;;;;;;1.17;0.50;;;16.40;89.50;;;;;;10453525;28;20053;-74
2022/01/03 01:10:21;;;;;;;1.60;0.40;;;16.30;89.60;;;;;;10453731;28;20056;-74
2022/01/03 01:15:22;;;;;;;1.35;0.40;;;16.30;89.70;;;;;;10450520;28;20053;-74
2022/01/03 01:20:24;;;;;;;1.48;0.52;;;16.20;89.70;;;;;;10452332;28;20387;-73
2022/01/03 01:30:40;;;;;;;1.20;0.52;;;16.10;89.80;;;;;;10439329;28;20131;-74
2022/01/03 01:35:42;;;;;;;1.90;0.60;;;16.10;90.00;;;;;;10452782;28;20056;-74
2022/01/03 01:40:44;;;;;;;1.90;0.60;;;16.00;90.00;;;;;;10452938;28;20053;-73
2022/01/03 01:45:46;;;;;;;1.48;0.45;;;16.00;90.00;;;;;;10448843;28;20044;-74
2022/01/03 01:50:48;;;;;;;2.70;0.60;;;15.90;90.00;;;;;;10452596;28;20049;-74
2022/01/03 01:55:49;;;;;;;2.08;0.60;;;15.90;90.00;;;;;;10450168;28;20074;-74
2022/01/03 02:00:51;;;;;;;2.50;0.68;;;15.90;90.10;;;;;;10439583;28;20052;-74
2022/01/03 02:05:52;;;;;;;1.50;0.60;;;15.80;90.10;;;;;;10452037;28;20068;-74
2022/01/03 02:10:54;;;;;;;2.35;0.47;;;15.80;90.10;;;;;;10451965;28;20040;-75
2022/01/03 02:16:00;;;;;;;1.80;0.50;;;15.80;90.20;;;;;;10452049;28;20049;-74
2022/01/03 02:21:01;;;;;;;2.80;0.70;;;15.70;90.20;;;;;;10451846;28;20413;-74
2022/01/03 02:26:03;;;;;;;1.70;0.57;;;15.70;90.20;;;;;;10445205;28;20511;-74
2022/01/03 02:31:04;;;;;;;1.92;0.63;;;15.60;90.20;;;;;;10454520;28;20071;-74
2022/01/03 02:36:06;;;;;;;2.55;0.90;;;15.60;90.20;;;;;;10457744;28;20056;-74
2022/01/03 02:41:07;;;;;;;1.33;0.60;;;15.60;90.20;;;;;;10459160;28;20041;-74
2022/01/03 02:46:09;;;;;;;2.45;0.80;;;15.50;90.20;;;;;;10458925;28;20048;-74
2022/01/03 02:51:11;;;;;;;3.22;0.82;;;15.50;90.20;;;;;;10458070;28;20102;-74
2022/01/03 02:56:12;;;;;;;2.17;0.68;;;15.50;90.50;;;;;;10451147;28;20057;-74
2022/01/03 03:01:14;;;;;;;4.07;1.10;;;15.40;90.30;;;;;;10420431;28;20052;-74
2022/01/03 03:06:15;;;;;;;3.33;0.93;;;15.50;90.30;;;;;;10458490;28;20053;-74
2022/01/03 03:11:17;;;;;;;2.95;0.80;;;15.40;90.30;;;;;;10450388;28;20090;-73
2022/01/03 03:16:18;;;;;;;2.47;0.88;;;15.40;90.30;;;;;;10457845;28;20065;-74
2022/01/03 03:21:19;;;;;;;3.45;0.98;;;15.40;90.40;;;;;;10458336;28;20045;-72
2022/01/03 03:26:21;;;;;;;3.90;0.85;;;15.30;90.30;;;;;;10445052;28;20052;-74
2022/01/03 03:31:22;;;;;;;3.63;1.10;;;15.30;90.40;;;;;;10457597;28;20041;-74
2022/01/03 03:36:24;;;;;;;2.65;0.98;;;15.30;90.40;;;;;;10453558;28;20068;-74
2022/01/03 03:41:26;;;;;;;4.13;0.85;;;15.30;90.40;;;;;;10455990;28;20536;-74
2022/01/03 03:46:28;;;;;;;4.47;1.10;;;15.20;90.40;;;;;;10457039;28;20048;-74
2022/01/03 03:51:29;;;;;;;6.63;1.55;;;15.20;90.40;;;;;;10449381;28;20049;-74
2022/01/03 03:56:31;;;;;;;4.47;1.25;;;15.10;90.40;;;;;;10445758;28;20049;-73
2022/01/03 04:01:32;;;;;;;5.38;1.20;;;15.10;90.40;;;;;;10456410;28;20049;-74
2022/01/03 04:06:34;;;;;;;4.07;1.17;;;15.10;90.40;;;;;;10455781;28;20045;-74
2022/01/03 04:11:35;;;;;;;3.40;1.10;;;15.10;90.50;;;;;;10445917;28;20049;-74
2022/01/03 04:16:37;;;;;;;3.72;1.20;;;15.10;90.50;;;;;;10449981;28;20061;-74
2022/01/03 04:21:39;;;;;;;4.07;1.20;;;15.10;90.50;;;;;;10441451;28;20056;-74
2022/01/03 04:26:40;;;;;;;4.47;1.40;;;15.00;90.50;;;;;;10414836;28;20503;-74
2022/01/03 04:31:42;;;;;;;5.22;1.35;;;15.00;90.50;;;;;;10446515;28;20051;-73
2022/01/03 04:36:43;;;;;;;4.18;1.33;;;15.00;90.50;;;;;;10440110;28;20040;-74
2022/01/03 04:41:45;;;;;;;4.63;1.35;;;14.90;90.50;;;;;;10450517;28;20041;-74
2022/01/03 04:46:46;;;;;;;4.75;1.63;;;15.00;90.50;;;;;;10453052;28;20545;-73
2022/01/03 04:51:48;;;;;;;5.05;1.50;;;14.90;90.50;;;;;;10455097;28;20067;-73
2022/01/03 04:56:49;;;;;;;4.15;1.40;;;14.90;90.50;;;;;;10452448;28;20049;-73
2022/01/03 05:01:51;;;;;;;5.07;1.52;;;14.90;90.50;;;;;;10450692;28;20048;-74
2022/01/03 05:06:52;;;;;;;5.38;1.50;;;14.80;90.60;;;;;;10453758;28;20060;-73
2022/01/03 05:11:55;;;;;;;5.97;1.65;;;14.90;90.60;;;;;;10446329;28;20099;-73
2022/01/03 05:16:57;;;;;;;6.78;1.85;;;14.80;90.50;;;;;;10438503;28;20048;-73
2022/01/03 05:21:59;;;;;;;6.10;1.70;;;14.80;90.60;;;;;;10419520;28;20041;-74
2022/01/03 05:27:00;;;;;;;4.32;1.60;;;14.80;90.60;;;;;;10453897;28;20060;-74
2022/01/03 05:32:02;;;;;;;6.07;1.80;;;14.80;90.60;;;;;;10453965;28;20053;-73
2022/01/03 05:37:03;;;;;;;6.20;1.88;;;14.70;90.60;;;;;;10451511;28;20122;-73
2022/01/03 05:42:05;;;;;;;5.90;1.92;;;14.70;90.80;;;;;;10453441;28;20053;-73
2022/01/03 05:47:06;;;;;;;5.88;2.20;;;14.80;90.70;;;;;;10442804;28;20319;-73
2022/01/03 05:52:08;;;;;;;5.68;1.73;;;14.80;90.70;;;;;;10452852;28;20052;-74
2022/01/03 05:57:09;;;;;;;5.55;1.95;;;14.70;90.70;;;;;;10453254;28;20049;-74
2022/01/03 06:02:10;;;;;;;8.63;2.00;;;14.80;90.80;;;;;;10439064;28;20046;-74
2022/01/03 06:07:12;;;;;;;6.18;1.90;;;14.80;90.80;;;;;;10443436;28;20049;-74
2022/01/03 06:12:13;;;;;;;5.22;1.70;;;14.80;90.70;;;;;;10461599;28;20053;-73
2022/01/03 06:17:15;;;;;;;6.82;2.00;;;14.80;90.70;;;;;;10459996;28;20056;-74
2022/01/03 06:22:16;;;;;;;5.85;1.95;;;14.80;90.80;;;;;;10460068;28;20048;-73
2022/01/03 06:27:18;;;;;;;4.70;1.90;;;14.80;90.70;;;;;;10456963;28;20041;-73
2022/01/03 06:32:19;;;;;;;7.35;2.10;;;14.80;90.70;;;;;;10459164;28;20041;-74
2022/01/03 06:37:21;;;;;;;7.43;2.40;;;14.80;90.70;;;;;;10460541;28;20048;-72
2022/01/03 06:42:22;;;;;;;6.80;2.35;;;14.80;90.80;;;;;;10458367;28;20041;-74
2022/01/03 06:47:24;;;;;;;6.03;1.90;;;14.90;90.80;;;;;;10459143;28;20049;-73
2022/01/03 06:52:25;;;;;;;5.03;1.80;;;15.20;90.70;;;;;;10459615;28;20037;-73
2022/01/03 06:57:27;;;;;;;5.90;1.83;;;15.80;90.40;;;;;;10459003;28;20103;-74
2022/01/03 07:02:28;;;;;;;4.25;1.67;;;16.40;89.90;;;;;;10456841;28;20041;-73
2022/01/03 07:07:29;;;;;;;4.80;1.70;;;17.10;89.30;;;;;;10453780;28;20052;-74
2022/01/03 07:12:31;;;;;;;4.47;1.63;;;17.60;88.50;;;;;;10457977;28;20045;-74
2022/01/03 07:22:52;;;;;;;5.80;1.80;;;18.50;87.10;;;;;;10458650;28;20033;-74
2022/01/03 07:27:53;;;;;;;5.50;1.80;;;18.30;87.00;;;;;;10458316;28;20118;-74
2022/01/03 07:32:55;;;;;;;5.38;1.90;;;18.00;88.00;;;;;;10458159;28;20045;-74
2022/01/03 07:37:58;;;;;;;4.82;1.73;;;17.70;87.90;;;;;;10457912;28;20056;-74
2022/01/03 07:42:59;;;;;;;5.35;1.88;;;17.60;88.20;;;;;;10457733;28;20049;-74
2022/01/03 07:48:01;;;;;;;5.13;2.00;;;17.50;88.40;;;;;;10457503;28;20041;-74
2022/01/03 07:53:02;;;;;;;5.15;1.95;;;17.40;88.60;;;;;;10457379;28;20053;-74
2022/01/03 07:58:04;;;;;;;4.13;1.70;;;17.40;88.60;;;;;;10457879;28;20055;-74
2022/01/03 08:03:05;;;;;;;5.10;1.80;;;17.30;88.70;;;;;;10456983;28;20102;-74
2022/01/03 08:08:09;;;;;;;4.88;1.85;;;17.30;88.60;;;;;;10456836;28;20044;-74
2022/01/03 08:13:10;;;;;;;5.18;1.75;;;17.30;88.70;;;;;;10456699;28;20041;-74
2022/01/03 08:18:12;;;;;;;5.55;2.00;;;17.30;88.60;;;;;;10456117;28;20053;-75
2022/01/03 08:23:13;;;;;;;5.10;1.85;;;17.30;88.70;;;;;;10456898;28;20102;-74
2022/01/03 08:28:15;;;;;;;4.90;2.10;;;17.30;88.70;;;;;;10455631;28;20045;-74
2022/01/03 08:33:16;;;;;;;4.65;1.88;;;17.30;88.60;;;;;;10455912;28;20048;-74
2022/01/03 08:38:18;;;;;;;5.70;1.90;;;17.30;88.70;;;;;;10455782;28;20052;-74
2022/01/03 08:43:19;;;;;;;7.03;2.10;;;17.30;88.60;;;;;;10455409;28;20110;-74
2022/01/03 08:48:21;;;;;;;5.78;1.80;;;17.30;88.70;;;;;;10455072;28;20080;-74
2022/01/03 08:53:26;;;;;;;3.72;1.90;;;17.30;88.60;;;;;;10454975;28;20059;-74
2022/01/03 08:58:27;;;;;;;6.47;2.17;;;17.30;88.70;;;;;;10454737;28;20072;-74
2022/01/03 09:03:29;;;;;;;5.55;1.98;;;17.30;88.60;;;;;;10454463;28;20071;-74
2022/01/03 09:08:30;;;;;;;4.85;1.63;;;17.30;88.70;;;;;;10454236;28;20048;-75
2022/01/03 09:13:32;;;;;;;4.43;1.65;;;17.30;88.60;;;;;;10454230;28;20041;-74
2022/01/03 09:18:33;;;;;;;5.50;2.13;;;17.30;88.60;;;;;;10453703;28;20049;-74
2022/01/03 09:23:39;;;;;;;4.15;1.70;;;17.20;88.60;;;;;;10454361;28;20056;-75
2022/01/03 09:28:57;;;;;;;5.17;1.90;;;17.30;88.70;;;;;;10453703;28;20045;-75
2022/01/03 09:33:58;;;;;;;5.88;1.90;;;17.20;88.70;;;;;;10453976;28;20041;-75
2022/01/03 09:39:00;;;;;;;4.00;1.77;;;17.30;88.60;;;;;;10453547;28;20045;-75
2022/01/03 09:44:01;;;;;;;6.10;1.75;;;17.20;88.60;;;;;;10453278;28;20045;-75
2022/01/03 09:49:02;;;;;;;5.57;1.95;;;17.30;88.60;;;;;;10453338;28;20457;-75
2022/01/03 09:54:04;;;;;;;5.15;1.77;;;17.30;88.60;;;;;;10453169;28;20072;-75
2022/01/03 09:59:06;;;;;;;5.60;1.77;;;17.30;88.60;;;;;;10453308;28;20072;-75
2022/01/03 10:04:09;;;;;;;5.38;2.03;;;17.30;88.60;;;;;;10453128;28;20049;-75
2022/01/03 10:09:10;;;;;;;4.68;1.75;;;17.30;88.50;;;;;;10453399;28;20073;-75
2022/01/03 10:14:12;;;;;;;4.60;1.80;;;17.30;88.50;;;;;;10453474;28;20060;-75
2022/01/03 10:19:13;;;;;;;5.32;1.70;;;17.30;88.50;;;;;;10452631;28;20049;-74
2022/01/03 10:24:15;;;;;;;5.07;1.75;;;17.30;88.40;;;;;;10453068;28;20059;-75
2022/01/03 10:29:16;;;;;;;5.32;2.15;;;17.40;88.40;;;;;;10452486;28;20045;-75
2022/01/03 10:34:18;;;;;;;4.63;1.55;;;17.40;88.30;;;;;;10452952;28;20128;-75
2022/01/03 10:39:19;;;;;;;6.10;1.95;;;17.40;88.20;;;;;;10452668;28;20059;-75
2022/01/03 10:44:21;;;;;;;4.38;1.75;;;17.40;88.10;;;;;;10452942;28;20128;-75
2022/01/03 10:49:22;;;;;;;4.75;1.65;;;17.40;88.10;;;;;;10452282;28;20053;-75
2022/01/03 10:54:24;;;;;;;5.82;1.77;;;17.50;88.00;;;;;;10458085;28;20498;-75
2022/01/03 10:59:30;;;;;;;5.07;1.92;;;17.50;88.00;;;;;;10459936;28;20383;-75
2022/01/03 11:04:36;;;;;;;;;;;17.50;87.90;;;;;;10459474;28;20057;-75
2022/01/03 11:14:56;;;;;;;5.05;2.15;;;17.50;88.00;;;;;;10456676;28;20041;-75
2022/01/03 11:19:59;;;;;;;5.10;1.70;;;17.40;88.00;;;;;;10457916;28;20057;-75
2022/01/03 11:25:01;;;;;;;5.47;1.60;;;17.50;88.00;;;;;;10456333;28;20395;-76
2022/01/03 11:30:02;;;;;;;4.40;1.50;;;18.00;87.60;;;;;;10424573;28;20054;-75
2022/01/03 11:35:04;;;;;;;4.95;1.42;;;18.50;86.90;;;;;;10457483;28;20052;-75
2022/01/03 11:40:05;;;;;;;3.53;1.45;;;19.10;86.10;;;;;;10456798;28;20505;-75
2022/01/03 11:45:07;;;;;;;3.83;1.52;;;19.60;85.30;;;;;;10457545;28;20044;-75
2022/01/03 11:50:08;;;;;;;3.75;1.45;;;20.00;84.60;;;;;;10456397;28;20405;-75
2022/01/03 11:55:10;;;;;;;3.45;1.30;;;20.50;84.00;;;;;;10456715;28;20075;-75
2022/01/03 12:05:30;;;;;;;4.32;1.50;;;21.00;83.20;;;;;;10455094;28;20048;-75
2022/01/03 12:10:32;;;;;;;3.78;1.30;;;21.10;82.90;;;;;;10456709;28;20132;-76
2022/01/03 12:15:34;;;;;;;4.03;1.40;;;21.20;82.80;;;;;;10455230;28;20510;-75
2022/01/03 12:20:36;;;;;;;5.00;1.48;;;21.30;82.60;;;;;;10454738;28;20453;-75
2022/01/03 12:25:39;;;;;;;4.55;1.50;;;21.40;82.50;;;;;;10453923;28;20041;-76
2022/01/03 12:30:41;;;;;;;4.70;1.60;;;21.40;82.40;;;;;;10455717;28;20053;-75
2022/01/03 12:35:42;;;;;;;3.67;1.50;;;21.50;82.40;;;;;;10455721;28;20045;-75
2022/01/03 12:40:44;;;;;;;3.13;1.38;;;21.50;82.40;;;;;;10455603;28;20053;-75
2022/01/03 12:45:46;;;;;;;5.05;1.60;;;21.50;82.30;;;;;;10455503;28;20103;-75
2022/01/03 12:50:48;;;;;;;4.13;1.40;;;21.50;82.20;;;;;;10454865;28;20045;-75
2022/01/03 12:55:50;;;;;;;5.85;1.65;;;21.50;82.20;;;;;;10455168;28;20045;-75
2022/01/03 13:00:51;;;;;;;4.10;1.33;;;21.40;82.20;;;;;;10454846;28;20045;-76
2022/01/03 13:05:53;;;;;;;4.88;1.75;;;21.40;82.20;;;;;;10454213;28;20059;-75
2022/01/03 13:10:54;;;;;;;4.03;1.40;;;21.40;82.20;;;;;;10454696;28;20037;-75
2022/01/03 13:15:56;;;;;;;4.88;1.55;;;21.40;82.10;;;;;;10453269;28;20525;-74
2022/01/03 13:20:57;;;;;;;4.43;1.65;;;21.40;82.10;;;;;;10454221;28;20505;-74
2022/01/03 13:25:59;;;;;;;4.13;1.30;;;21.50;82.10;;;;;;10454138;28;20045;-75
2022/01/03 13:31:00;;;;;;;3.33;1.30;;;21.50;82.00;;;;;;10453927;28;20494;-75
2022/01/03 13:36:02;;;;;;;3.65;1.33;;;21.50;82.00;;;;;;10453797;28;20056;-75
2022/01/03 13:41:03;;;;;;;4.20;1.48;;;21.50;82.00;;;;;;10453602;28;20408;-74
2022/01/03 13:51:24;;;;;;;4.82;1.60;;;21.50;82.00;;;;;;10453128;28;20041;-74
2022/01/03 13:56:25;;;;;;;4.55;1.40;;;21.40;81.90;;;;;;10453520;28;20052;-74
2022/01/03 14:01:27;;;;;;;4.30;1.45;;;21.40;81.90;;;;;;10453093;28;20486;-75
2022/01/03 14:06:28;;;;;;;3.28;1.20;;;21.40;81.90;;;;;;10452770;28;20057;-74
2022/01/03 14:11:30;;;;;;;4.72;1.55;;;21.40;81.90;;;;;;10453046;28;20060;-74
2022/01/03 14:16:31;;;;;;;4.47;1.40;;;21.40;81.90;;;;;;10452639;28;20056;-75
2022/01/03 14:21:33;;;;;;;3.85;1.48;;;21.40;82.00;;;;;;10452970;28;20045;-75
2022/01/03 14:26:34;;;;;;;3.75;1.40;;;21.40;82.00;;;;;;10454676;28;20531;-75
2022/01/03 14:31:36;;;;;;;4.95;1.80;;;21.40;81.90;;;;;;10460410;28;20413;-74
2022/01/03 14:36:37;;;;;;;4.03;1.50;;;21.40;81.90;;;;;;10460419;28;20071;-76
2022/01/03 14:41:39;;;;;;;4.68;1.67;;;21.40;81.90;;;;;;10460040;28;20051;-75
2022/01/03 14:46:40;;;;;;;5.13;1.48;;;21.40;81.90;;;;;;10460009;28;20056;-75
2022/01/03 14:51:42;;;;;;;3.30;1.40;;;21.40;81.90;;;;;;10459641;28;20045;-75
2022/01/03 14:56:43;;;;;;;4.70;1.65;;;21.40;81.90;;;;;;10459644;28;20383;-75
2022/01/03 15:01:46;;;;;;;5.13;1.73;;;21.40;81.90;;;;;;10459181;28;20486;-76
2022/01/03 15:06:48;;;;;;;3.80;1.48;;;21.40;81.80;;;;;;10458780;28;20421;-75
2022/01/03 15:11:51;;;;;;;2.85;1.25;;;21.40;81.80;;;;;;10459076;28;20060;-76
2022/01/03 15:16:52;;;;;;;4.30;1.60;;;21.40;81.90;;;;;;10458562;28;20128;-76
2022/01/03 15:21:53;;;;;;;4.07;1.30;;;21.40;81.90;;;;;;10458870;28;20102;-76
2022/01/03 15:26:56;;;;;;;4.65;1.50;;;21.30;81.80;;;;;;10458499;28;20049;-76
2022/01/03 15:31:57;;;;;;;4.85;1.60;;;21.30;81.80;;;;;;10457928;28;20055;-74
2022/01/03 15:36:59;;;;;;;3.70;1.55;;;21.40;81.90;;;;;;10457618;28;20508;-76
2022/01/03 15:42:01;;;;;;;5.30;1.50;;;21.30;81.90;;;;;;10457373;28;20401;-75
2022/01/03 15:47:04;;;;;;;3.53;1.30;;;21.30;81.90;;;;;;10456503;28;20049;-76
2022/01/03 15:52:05;;;;;;;4.68;1.60;;;21.30;81.90;;;;;;10437210;28;20049;-76
2022/01/03 15:57:07;;;;;;;3.78;1.63;;;21.30;82.00;;;;;;10447746;28;20056;-76
2022/01/03 16:02:08;;;;;;;4.18;1.85;;;21.30;82.00;;;;;;10450840;28;20041;-76
2022/01/03 16:07:09;;;;;;;5.30;1.40;;;21.30;82.00;;;;;;10431581;28;20064;-76
2022/01/03 16:12:11;;;;;;;4.22;1.30;;;21.30;82.00;;;;;;10449329;28;20052;-76
2022/01/03 16:17:12;;;;;;;4.15;1.50;;;21.40;82.00;;;;;;10448380;28;20045;-77
2022/01/03 16:22:15;;;;;;;3.97;1.58;;;21.40;82.00;;;;;;10450900;28;20136;-76
2022/01/03 16:27:16;;;;;;;3.90;1.40;;;21.40;81.90;;;;;;10449752;28;20041;-76
2022/01/03 16:32:17;;;;;;;5.18;1.70;;;21.40;81.90;;;;;;10449209;28;20049;-76
2022/01/03 16:37:19;;;;;;;6.32;1.42;;;21.40;81.90;;;;;;10448878;28;20052;-76
2022/01/03 16:42:21;;;;;;;3.97;1.60;;;21.40;81.90;;;;;;10445013;28;20399;-77
2022/01/03 16:47:22;;;;;;;3.97;1.70;;;21.40;81.90;;;;;;10421006;28;20132;-76
2022/01/03 16:52:24;;;;;;;4.07;1.45;;;21.40;81.90;;;;;;10447831;28;20045;-75
2022/01/03 16:57:25;;;;;;;4.97;1.77;;;21.40;82.00;;;;;;10447654;28;20052;-75
2022/01/03 17:02:28;;;;;;;3.83;1.67;;;21.40;82.00;;;;;;10448326;28;20099;-73
2022/01/03 17:07:30;;;;;;;4.38;1.80;;;21.40;82.00;;;;;;10447682;28;20115;-75
2022/01/03 17:12:31;;;;;;;4.03;1.52;;;21.40;82.00;;;;;;10447649;28;20049;-76
2022/01/03 17:17:33;;;;;;;4.10;1.50;;;21.40;82.00;;;;;;10447004;28;20044;-76
2022/01/03 17:22:34;;;;;;;3.60;1.50;;;21.40;82.00;;;;;;10446980;28;20055;-75
2022/01/03 17:27:35;;;;;;;4.20;1.63;;;21.40;82.00;;;;;;10446971;28;20103;-75
2022/01/03 17:32:37;;;;;;;3.65;1.40;;;21.40;82.00;;;;;;10446926;28;20044;-76
2022/01/03 17:37:38;;;;;;;3.80;1.60;;;21.40;82.00;;;;;;10447868;28;20060;-75
2022/01/03 17:42:40;;;;;;;3.53;1.40;;;21.40;82.00;;;;;;10446552;28;20037;-76
2022/01/03 17:47:41;;;;;;;3.65;1.38;;;21.40;82.10;;;;;;10468190;28;20052;-77
2022/01/03 17:52:43;;;;;;;4.05;1.60;;;21.40;82.10;;;;;;10488240;28;20049;-75
2022/01/03 17:57:44;;;;;;;3.78;1.23;;;21.30;82.00;;;;;;10473485;28;20064;-75
2022/01/03 18:02:46;;;;;;;4.00;1.45;;;21.30;82.00;;;;;;10450929;28;20045;-75
2022/01/03 18:07:47;;;;;;;4.60;1.33;;;21.30;82.10;;;;;;10455234;28;20052;-73
2022/01/03 18:12:53;;;;;;;3.60;1.17;;;21.40;82.10;;;;;;10455212;28;20045;-75
2022/01/03 18:17:54;;;;;;;3.17;1.30;;;21.30;82.00;;;;;;10432900;28;20499;-74
2022/01/03 18:22:56;;;;;;;5.28;1.40;;;21.30;82.10;;;;;;10436789;28;20079;-76
2022/01/03 18:27:58;;;;;;;4.75;1.20;;;21.30;82.30;;;;;;10452769;28;20041;-76
2022/01/03 18:33:00;;;;;;;3.08;1.27;;;21.30;82.40;;;;;;10453863;28;20041;-76
2022/01/03 18:38:01;;;;;;;2.75;1.20;;;21.30;82.50;;;;;;10453539;28;20049;-75
2022/01/03 18:43:03;;;;;;;3.70;1.40;;;21.30;82.60;;;;;;10440294;28;20174;-76
2022/01/03 18:48:04;;;;;;;3.67;1.60;;;21.30;82.70;;;;;;10453128;28;20505;-75
2022/01/03 18:53:06;;;;;;;3.95;1.40;;;21.20;82.70;;;;;;10453932;28;20406;-75
2022/01/03 18:58:07;;;;;;;4.30;1.33;;;21.20;82.70;;;;;;10452247;28;20060;-74
2022/01/03 19:03:08;;;;;;;4.10;1.52;;;21.30;82.80;;;;;;10452757;28;20040;-76
2022/01/03 19:08:10;;;;;;;3.92;1.15;;;21.30;82.80;;;;;;10452346;28;20460;-76
2022/01/03 19:13:12;;;;;;;3.05;1.20;;;21.30;82.80;;;;;;10452481;28;20060;-77
2022/01/03 19:18:13;;;;;;;3.25;1.35;;;21.20;82.70;;;;;;10456138;28;20045;-75
2022/01/03 19:23:15;;;;;;;3.88;1.27;;;21.20;82.70;;;;;;10451161;28;20521;-75
2022/01/03 19:28:16;;;;;;;3.42;1.20;;;21.20;82.70;;;;;;10451143;28;20413;-76
2022/01/03 19:38:36;;;;;;;2.67;1.05;;;21.20;82.70;;;;;;10437963;28;20479;-74
2022/01/03 19:43:38;;;;;;;3.25;1.20;;;21.20;82.70;;;;;;10449069;28;20425;-74
2022/01/03 19:48:39;;;;;;;3.00;1.20;;;21.20;82.80;;;;;;10450555;28;20801;-74
2022/01/03 19:53:42;;;;;;;2.70;1.30;;;21.20;82.80;;;;;;10449406;28;20502;-74
2022/01/03 19:58:44;;;;;;;3.33;1.30;;;21.10;82.80;;;;;;10422120;28;20393;-74
2022/01/03 20:03:45;;;;;;;3.20;1.42;;;21.10;82.80;;;;;;10450606;28;20098;-74
2022/01/03 20:08:47;;;;;;;3.38;1.67;;;21.20;82.90;;;;;;10449946;28;20053;-74
2022/01/03 20:13:53;;;;;;;3.22;1.30;;;21.10;82.80;;;;;;10449924;28;20406;-75
2022/01/03 20:18:54;;;;;;;2.78;1.25;;;21.20;82.80;;;;;;10434221;28;20065;-75
2022/01/03 20:23:56;;;;;;;3.03;1.50;;;21.20;82.80;;;;;;10428681;28;20051;-75
2022/01/03 20:28:58;;;;;;;2.50;1.40;;;21.10;82.70;;;;;;10449900;28;20480;-75
2022/01/03 20:33:59;;;;;;;3.30;1.45;;;21.20;82.80;;;;;;10448200;28;20048;-77
2022/01/03 20:39:01;;;;;;;2.70;1.23;;;21.10;82.80;;;;;;10448300;28;20045;-76
2022/01/03 20:44:02;;;;;;;2.30;1.30;;;21.10;82.90;;;;;;10448140;28;20041;-77
2022/01/03 20:49:05;;;;;;;2.55;1.40;;;21.10;82.80;;;;;;10448044;28;20052;-76
2022/01/03 20:54:06;;;;;;;3.75;1.42;;;21.20;82.80;;;;;;10447690;28;20143;-76
2022/01/03 20:59:07;;;;;;;3.03;1.35;;;21.10;82.80;;;;;;10448941;28;20056;-75
2022/01/03 21:04:09;;;;;;;2.50;1.35;;;21.20;82.80;;;;;;10445097;28;20048;-77
2022/01/03 21:09:11;;;;;;;3.03;1.25;;;21.20;82.80;;;;;;10453402;28;20401;-76
2022/01/03 21:14:13;;;;;;;2.47;1.30;;;21.10;83.00;;;;;;10453842;28;20049;-76
2022/01/03 21:19:14;;;;;;;3.67;1.30;;;20.90;83.20;;;;;;10452454;28;20075;-75
2022/01/03 21:24:16;;;;;;;3.92;1.45;;;20.80;83.60;;;;;;10449199;28;20060;-77
2022/01/03 21:29:17;;;;;;;2.92;1.40;;;20.50;83.80;;;;;;10453467;28;20288;-76
2022/01/03 21:34:19;;;;;;;3.50;1.70;;;20.40;84.00;;;;;;10452519;28;20041;-76
2022/01/03 21:39:20;;;;;;;3.97;1.50;;;20.20;84.30;;;;;;10441822;28;20063;-76
2022/01/03 21:44:22;;;;;;;2.83;1.35;;;20.10;84.50;;;;;;10453109;28;20045;-76
2022/01/03 21:49:23;;;;;;;4.65;1.55;;;20.00;84.70;;;;;;10451670;28;20560;-77
2022/01/03 21:54:24;;;;;;;4.45;1.70;;;19.90;84.80;;;;;;10453007;28;20505;-76
2022/01/03 21:59:26;;;;;;;3.33;1.35;;;19.70;84.90;;;;;;10437415;28;20512;-76
2022/01/03 22:04:28;;;;;;;3.58;1.60;;;19.60;85.10;;;;;;10452907;28;20133;-76
2022/01/03 22:09:29;;;;;;;4.38;1.55;;;19.60;85.30;;;;;;10452081;28;20052;-76
2022/01/03 22:14:31;;;;;;;2.97;1.48;;;19.50;85.40;;;;;;10430023;28;20053;-76
2022/01/03 22:19:33;;;;;;;3.05;1.70;;;19.40;85.60;;;;;;10446135;28;20052;-76
2022/01/03 22:24:34;;;;;;;2.63;1.30;;;19.30;85.70;;;;;;10452733;28;20510;-76
2022/01/03 22:29:36;;;;;;;3.45;1.40;;;19.20;85.80;;;;;;10447272;28;20406;-76
2022/01/03 22:34:38;;;;;;;2.72;1.48;;;19.10;85.90;;;;;;10444688;28;20425;-76
2022/01/03 22:39:40;;;;;;;2.58;1.45;;;19.10;86.00;;;;;;10450917;28;20482;-76
2022/01/03 22:44:41;;;;;;;3.72;1.63;;;19.00;86.10;;;;;;10452130;28;20057;-75
2022/01/03 22:49:45;;;;;;;3.63;1.40;;;18.90;86.20;;;;;;10432124;28;20049;-76
2022/01/03 22:54:46;;;;;;;3.80;1.42;;;18.90;86.30;;;;;;10458573;28;20564;-76
2022/01/03 22:59:48;;;;;;;3.35;1.38;;;18.80;86.40;;;;;;10459474;28;20516;-76
2022/01/03 23:04:49;;;;;;;3.10;1.25;;;18.70;86.40;;;;;;10451789;28;20509;-76
2022/01/03 23:09:51;;;;;;;3.22;1.40;;;18.70;86.50;;;;;;10458976;28;20053;-75
2022/01/03 23:14:52;;;;;;;3.17;1.35;;;18.60;86.60;;;;;;10458590;28;20055;-76
2022/01/03 23:19:54;;;;;;;3.03;1.23;;;18.60;86.70;;;;;;10457364;28;20052;-76
2022/01/03 23:24:55;;;;;;;4.43;1.70;;;18.50;86.70;;;;;;10437226;28;20049;-76
2022/01/03 23:29:56;;;;;;;2.70;1.40;;;18.50;86.80;;;;;;10459003;28;20056;-76
2022/01/03 23:34:58;;;;;;;2.97;1.27;;;18.40;86.80;;;;;;10457867;28;20048;-76
2022/01/03 23:39:59;;;;;;;3.00;1.48;;;18.40;86.90;;;;;;10431275;28;20045;-75
2022/01/03 23:45:01;;;;;;;2.53;1.20;;;18.30;87.00;;;;;;10467378;28;20059;-75
2022/01/03 23:50:02;;;;;;;3.17;1.30;;;18.30;87.10;;;;;;10456452;28;20041;-76
2022/01/03 23:55:04;;;;;;;3.97;1.50;;;18.20;87.00;;;;;;10445355;28;20046;-75
